ORK weather

North Little Rock Municipal Airport
North Little Rock, Arkansas, United States

Public forecast

Using degrees Fahrenheit for public forecast. Weather courtesy of forecast.io.

METAR (pilot weather report)

Closest report is Bill & Hillary Clinton National Airport/Adams Field, 6.4 nm (11.8 km) SSE. Retrieved 2019/08/21 03:53 UTC (23 minutes ago):

KLIT 210353Z 02007KT 10SM FEW055 SCT150 SCT250 26/19 A3012 RMK AO2 SLP200 CB DSIPTD T02560189

TAF (pilot weather forecast)

Forecast is more than 12 hours old.

Closest forecast is Bill & Hillary Clinton National Airport/Adams Field, 6.4 nm (11.8 km) SSE. Retrieved 2019/08/20 00:42 UTC (1 day ago):

TAF KLIT 202339Z 2100/2124 VRB04KT P6SM FEW250 FM211600 19005KT P6SM SCT050